createdAt,value
2018-09-06T00:00:22.243Z,79.10
2018-09-06T00:01:22.195Z,79.28
2018-09-06T00:02:22.151Z,79.28
2018-09-06T00:03:22.108Z,79.96
2018-09-06T00:04:22.078Z,80.15
2018-09-06T00:05:22.010Z,79.38
2018-09-06T00:06:21.964Z,79.77
2018-09-06T00:07:21.921Z,80.54
2018-09-06T00:08:21.874Z,79.96
2018-09-06T00:09:21.848Z,80.25
2018-09-06T00:10:21.779Z,80.15
2018-09-06T00:11:21.732Z,80.15
2018-09-06T00:12:21.684Z,79.77
2018-09-06T00:13:21.638Z,80.15
2018-09-06T00:14:21.617Z,80.25
2018-09-06T00:15:21.547Z,79.96
2018-09-06T00:16:21.497Z,79.96
2018-09-06T00:17:21.453Z,79.96
2018-09-06T00:18:21.403Z,80.15
2018-09-06T00:19:21.387Z,80.73
2018-09-06T00:20:21.312Z,80.15
2018-09-06T00:21:21.265Z,80.73
2018-09-06T00:22:21.217Z,80.15
2018-09-06T00:23:21.172Z,80.63
2018-09-06T00:24:21.167Z,80.44
2018-09-06T00:25:21.075Z,80.25
2018-09-06T00:26:21.031Z,80.83
2018-09-06T00:27:20.985Z,80.25
2018-09-06T00:28:20.940Z,80.44
2018-09-06T00:29:20.896Z,81.02
2018-09-06T00:30:20.873Z,82.17
2018-09-06T00:31:20.798Z,82.42
2018-09-06T00:32:20.751Z,82.14
2018-09-06T00:33:20.705Z,80.60
2018-09-06T00:34:20.658Z,81.27
2018-09-06T00:35:20.639Z,81.56
2018-09-06T00:36:20.566Z,81.37
2018-09-06T00:37:20.520Z,80.60
2018-09-06T00:38:20.472Z,80.98
2018-09-06T00:39:20.425Z,80.50
2018-09-06T00:40:20.408Z,80.50
2018-09-06T00:41:20.332Z,81.17
2018-09-06T00:42:20.292Z,80.69
2018-09-06T00:43:20.239Z,80.50
2018-09-06T00:44:20.199Z,80.50
2018-09-06T00:45:20.181Z,80.40
2018-09-06T00:46:20.105Z,80.60
2018-09-06T00:47:20.051Z,80.50
2018-09-06T00:48:20.005Z,80.98
2018-09-06T00:49:19.960Z,80.60
2018-09-06T00:50:19.906Z,80.88
2018-09-06T00:51:19.892Z,80.88
2018-09-06T00:52:19.815Z,80.79
2018-09-06T00:53:19.776Z,80.21
2018-09-06T00:54:19.728Z,80.79
2018-09-06T00:55:19.679Z,80.40
2018-09-06T00:56:19.653Z,80.60
2018-09-06T00:57:19.586Z,80.98
2018-09-06T00:58:19.538Z,80.79
2018-09-06T00:59:19.491Z,81.17
2018-09-06T01:00:19.453Z,81.17
2018-09-06T01:01:19.428Z,81.94
2018-09-06T01:02:19.351Z,83.00
2018-09-06T01:03:19.340Z,82.23
2018-09-06T01:04:19.256Z,81.84
2018-09-06T01:05:19.219Z,82.04
2018-09-06T01:06:19.186Z,81.04
2018-09-06T01:07:19.115Z,81.37
2018-09-06T01:08:19.070Z,82.71
2018-09-06T01:09:19.025Z,81.56
2018-09-06T01:10:18.983Z,81.46
2018-09-06T01:11:18.957Z,81.65
2018-09-06T01:12:18.883Z,81.17
2018-09-06T01:13:18.839Z,84.16
2018-09-06T01:14:18.790Z,82.71
2018-09-06T01:15:18.744Z,81.37
2018-09-06T01:16:18.721Z,81.27
2018-09-06T01:17:18.649Z,81.46
2018-09-06T01:18:18.604Z,81.46
2018-09-06T01:19:18.554Z,81.84
2018-09-06T01:20:18.507Z,81.99
2018-09-06T01:21:18.490Z,82.57
2018-09-06T01:22:18.417Z,82.86
2018-09-06T01:23:18.371Z,83.53
2018-09-06T01:24:18.324Z,82.86
2018-09-06T01:25:18.275Z,82.48
2018-09-06T01:26:18.253Z,85.17
2018-09-06T01:27:18.183Z,85.17
2018-09-06T01:28:18.133Z,84.01
2018-09-06T01:29:18.091Z,83.44
2018-09-06T01:30:18.048Z,83.53
2018-09-06T01:31:18.023Z,83.73
2018-09-06T01:32:17.951Z,85.07
2018-09-06T01:33:17.900Z,83.34
2018-09-06T01:34:17.856Z,84.40
2018-09-06T01:35:17.812Z,84.98
2018-09-06T01:36:17.805Z,83.73
2018-09-06T01:37:17.724Z,84.30
2018-09-06T01:38:17.722Z,84.59
2018-09-06T01:39:17.622Z,84.69
2018-09-06T01:40:17.577Z,85.46
2018-09-06T01:41:17.526Z,85.07
2018-09-06T01:42:17.504Z,84.69
2018-09-06T01:43:17.438Z,84.11
2018-09-06T01:44:17.386Z,85.84
2018-09-06T01:45:17.340Z,84.50
2018-09-06T01:46:17.294Z,85.94
2018-09-06T01:47:17.269Z,85.65
2018-09-06T01:48:17.198Z,86.04
2018-09-06T01:49:17.156Z,86.99
2018-09-06T01:50:17.102Z,86.99
2018-09-06T01:51:17.062Z,85.84
2018-09-06T01:52:17.035Z,85.32
2018-09-06T01:53:16.967Z,85.94
2018-09-06T01:54:16.920Z,84.78
2018-09-06T01:55:16.869Z,85.41
2018-09-06T01:56:16.831Z,87.05
2018-09-06T01:57:16.803Z,86.09
2018-09-06T01:58:16.730Z,85.51
2018-09-06T01:59:16.680Z,88.01
2018-09-06T02:00:16.638Z,88.30
2018-09-06T02:01:16.588Z,86.76
2018-09-06T02:02:16.568Z,85.61
2018-09-06T02:03:16.496Z,86.76
2018-09-06T02:04:16.448Z,88.59
2018-09-06T02:05:16.403Z,87.43
2018-09-06T02:06:16.356Z,86.95
2018-09-06T02:07:16.330Z,86.47
2018-09-06T02:08:16.261Z,86.18
2018-09-06T02:09:16.210Z,86.57
2018-09-06T02:10:16.165Z,87.62
2018-09-06T02:11:16.119Z,88.01
2018-09-06T02:12:16.092Z,87.24
2018-09-06T02:13:16.022Z,87.82
2018-09-06T02:14:15.978Z,87.72
2018-09-06T02:15:15.935Z,87.62
2018-09-06T02:16:15.881Z,87.34
2018-09-06T02:17:15.859Z,87.72
2018-09-06T02:18:15.792Z,88.01
2018-09-06T02:19:15.743Z,86.76
2018-09-06T02:20:15.714Z,86.47
2018-09-06T02:21:15.646Z,86.81
2018-09-06T02:22:15.627Z,86.43
2018-09-06T02:23:15.556Z,88.83
2018-09-06T02:24:15.567Z,89.69
2018-09-06T02:25:15.467Z,89.50
2018-09-06T02:26:15.416Z,89.50
2018-09-06T02:27:15.391Z,88.06
2018-09-06T02:28:15.316Z,88.35
2018-09-06T02:29:15.273Z,89.02
2018-09-06T02:30:15.224Z,88.83
2018-09-06T02:31:15.183Z,89.12
2018-09-06T02:32:15.155Z,88.45
2018-09-06T02:33:15.083Z,90.66
2018-09-06T02:34:15.044Z,91.81
2018-09-06T02:35:15.009Z,91.13
2018-09-06T02:36:14.939Z,92.00
2018-09-06T02:37:14.916Z,92.00
2018-09-06T02:38:14.849Z,90.94
2018-09-06T02:39:14.798Z,92.33
2018-09-06T02:40:14.757Z,92.00
2018-09-06T02:41:14.705Z,90.37
2018-09-06T02:42:14.685Z,90.75
2018-09-06T02:43:14.612Z,91.90
2018-09-06T02:44:14.564Z,91.42
2018-09-06T02:45:14.514Z,90.46
2018-09-06T02:46:14.467Z,89.98
2018-09-06T02:47:14.449Z,90.03
2018-09-06T02:48:14.377Z,91.47
2018-09-06T02:49:14.328Z,93.25
2018-09-06T02:50:14.287Z,91.86
2018-09-06T02:51:14.237Z,91.47
2018-09-06T02:52:14.227Z,91.09
2018-09-06T02:53:14.137Z,91.47
2018-09-06T02:54:14.089Z,90.99
2018-09-06T02:55:14.045Z,91.19
2018-09-06T02:56:14.001Z,91.28
2018-09-06T02:57:13.947Z,91.96
2018-09-06T02:58:13.928Z,91.96
2018-09-06T02:59:13.857Z,92.24
2018-09-06T03:00:13.803Z,92.05
2018-09-06T03:01:13.755Z,92.05
2018-09-06T03:02:13.715Z,92.05
2018-09-06T03:03:13.694Z,92.05
2018-09-06T03:04:13.618Z,91.66
2018-09-06T03:05:13.574Z,91.38
2018-09-06T03:06:13.524Z,91.47
2018-09-06T03:07:13.474Z,91.66
2018-09-06T03:08:13.454Z,91.28
2018-09-06T03:09:13.384Z,92.33
2018-09-06T03:10:13.331Z,92.05
2018-09-06T03:11:13.288Z,92.82
2018-09-06T03:12:13.245Z,93.59
2018-09-06T03:13:13.213Z,93.77
2018-09-06T03:14:13.145Z,93.59
2018-09-06T03:15:13.094Z,93.39
2018-09-06T03:16:13.047Z,93.30
2018-09-06T03:17:13.000Z,92.72
2018-09-06T03:18:12.980Z,93.30
2018-09-06T03:19:12.907Z,92.05
2018-09-06T03:20:12.857Z,91.86
2018-09-06T03:21:12.809Z,92.82
2018-09-06T03:22:12.767Z,93.10
2018-09-06T03:23:12.743Z,92.63
2018-09-06T03:24:12.666Z,92.05
2018-09-06T03:25:12.622Z,92.05
2018-09-06T03:26:12.573Z,92.24
2018-09-06T03:27:12.529Z,93.97
2018-09-06T03:28:12.501Z,92.82
2018-09-06T03:29:12.432Z,94.35
2018-09-06T03:30:12.381Z,92.91
2018-09-06T03:31:12.336Z,93.97
2018-09-06T03:32:12.286Z,94.16
2018-09-06T03:33:12.261Z,93.68
2018-09-06T03:34:12.197Z,94.07
2018-09-06T03:35:12.145Z,95.12
2018-09-06T03:36:12.122Z,94.16
2018-09-06T03:37:12.053Z,92.82
2018-09-06T03:38:12.135Z,94.16
2018-09-06T03:39:11.958Z,93.87
2018-09-06T03:40:11.907Z,94.83
2018-09-06T03:41:11.863Z,95.60
2018-09-06T03:42:11.815Z,94.45
2018-09-06T03:43:11.793Z,93.49
2018-09-06T03:44:11.717Z,94.83
2018-09-06T03:45:11.683Z,93.87
2018-09-06T03:46:11.633Z,92.82
2018-09-06T03:47:11.577Z,92.82
2018-09-06T03:48:11.552Z,92.82
2018-09-06T03:49:11.486Z,95.50
2018-09-06T03:50:11.435Z,95.70
2018-09-06T03:51:11.386Z,95.12
2018-09-06T03:52:11.341Z,95.50
2018-09-06T03:53:11.313Z,95.12
2018-09-06T03:54:11.245Z,94.93
2018-09-06T03:55:11.200Z,95.50
2018-09-06T03:56:11.149Z,95.60
2018-09-06T03:57:11.103Z,94.16
2018-09-06T03:58:11.076Z,95.70
2018-09-06T03:59:11.006Z,95.70
2018-09-06T04:00:10.960Z,95.89
2018-09-06T04:01:10.916Z,95.98
2018-09-06T04:02:10.871Z,96.32
2018-09-06T04:03:10.847Z,95.65
2018-09-06T04:04:10.772Z,96.89
2018-09-06T04:05:10.722Z,97.86
2018-09-06T04:06:10.677Z,96.22
2018-09-06T04:07:10.677Z,95.46
2018-09-06T04:08:10.612Z,95.84
2018-09-06T04:09:10.543Z,97.09
2018-09-06T04:10:10.487Z,98.24
2018-09-06T04:11:10.445Z,97.86
2018-09-06T04:12:10.390Z,98.14
2018-09-06T04:13:10.386Z,96.51
2018-09-06T04:14:10.292Z,95.84
2018-09-06T04:15:10.246Z,96.89
2018-09-06T04:16:10.198Z,97.86
2018-09-06T04:17:10.162Z,96.70
2018-09-06T04:18:10.149Z,97.86
2018-09-06T04:19:10.054Z,98.24
2018-09-06T04:20:10.016Z,98.91
2018-09-06T04:21:09.977Z,98.14
2018-09-06T04:22:09.914Z,98.62
2018-09-06T04:23:09.865Z,99.99
2018-09-06T04:24:09.894Z,99.20
2018-09-06T04:25:09.770Z,99.99
2018-09-06T04:26:09.724Z,98.62
2018-09-06T04:27:09.679Z,98.14
2018-09-06T04:28:09.627Z,97.47
2018-09-06T04:29:09.603Z,96.80
2018-09-06T04:30:09.533Z,97.09
2018-09-06T04:31:09.489Z,96.13
2018-09-06T04:32:09.443Z,95.94
2018-09-06T04:33:09.392Z,98.62
2018-09-06T04:34:09.367Z,97.86
2018-09-06T04:35:09.300Z,97.56
2018-09-06T04:36:09.330Z,99.99
2018-09-06T04:37:09.199Z,99.99
2018-09-06T04:38:09.373Z,99.99
2018-09-06T04:39:09.125Z,99.99
2018-09-06T04:40:09.064Z,99.99
2018-09-06T04:41:09.005Z,99.99
2018-09-06T04:42:08.965Z,99.99
2018-09-06T04:43:08.920Z,99.99
2018-09-06T04:44:08.886Z,99.99
2018-09-06T04:45:08.824Z,99.99
2018-09-06T04:46:08.769Z,99.73
2018-09-06T04:47:08.727Z,99.34
2018-09-06T04:48:08.674Z,99.99
2018-09-06T04:49:08.651Z,99.99
2018-09-06T04:50:08.581Z,99.99
2018-09-06T04:51:08.539Z,99.99
2018-09-06T04:52:08.484Z,99.99
2018-09-06T04:53:08.437Z,99.99
2018-09-06T04:54:08.416Z,99.99
2018-09-06T04:55:08.361Z,99.99
2018-09-06T04:56:08.289Z,99.99
2018-09-06T04:57:08.248Z,99.99
2018-09-06T04:58:08.196Z,99.99
2018-09-06T04:59:08.180Z,99.99
2018-09-06T05:00:08.107Z,99.99
2018-09-06T05:01:08.059Z,99.99
2018-09-06T05:02:08.004Z,99.99
2018-09-06T05:03:07.958Z,99.99
2018-09-06T05:04:07.955Z,99.99
2018-09-06T05:05:07.863Z,99.99
2018-09-06T05:06:07.817Z,99.99
2018-09-06T05:07:07.774Z,99.99
2018-09-06T05:08:07.721Z,99.99
2018-09-06T05:09:07.703Z,99.99
2018-09-06T05:10:07.624Z,99.99
2018-09-06T05:11:07.590Z,99.99
2018-09-06T05:12:07.525Z,99.99
2018-09-06T05:13:07.483Z,99.99
2018-09-06T05:14:07.455Z,99.99
2018-09-06T05:15:07.386Z,99.99
2018-09-06T05:16:07.339Z,99.99
2018-09-06T05:17:07.300Z,99.99
2018-09-06T05:18:07.236Z,99.99
2018-09-06T05:19:07.214Z,99.99
2018-09-06T05:20:07.146Z,99.99
2018-09-06T05:21:07.095Z,99.99
2018-09-06T05:22:07.091Z,99.99
2018-09-06T05:23:07.006Z,99.99
2018-09-06T05:24:06.977Z,99.99
2018-09-06T05:25:06.908Z,99.99
2018-09-06T05:26:06.858Z,99.99
2018-09-06T05:27:06.810Z,99.99
2018-09-06T05:28:06.758Z,99.99
2018-09-06T05:29:06.736Z,99.99
2018-09-06T05:30:06.661Z,99.99
2018-09-06T05:31:06.619Z,99.99
2018-09-06T05:32:06.569Z,99.99
2018-09-06T05:33:06.521Z,99.99
2018-09-06T05:34:06.499Z,99.99
2018-09-06T05:35:06.436Z,99.99
2018-09-06T05:36:06.454Z,99.99
2018-09-06T05:37:06.325Z,99.99
2018-09-06T05:38:06.286Z,99.99
2018-09-06T05:39:06.273Z,99.99
2018-09-06T05:40:06.185Z,99.99
2018-09-06T05:41:06.135Z,99.99
2018-09-06T05:42:06.094Z,99.99
2018-09-06T05:43:06.056Z,99.99
2018-09-06T05:44:05.994Z,99.99
2018-09-06T05:45:05.973Z,99.99
2018-09-06T05:46:05.894Z,99.99
2018-09-06T05:47:05.847Z,99.99
2018-09-06T05:48:05.800Z,99.99
2018-09-06T05:49:05.755Z,99.99
2018-09-06T05:50:05.729Z,99.99
2018-09-06T05:51:05.657Z,99.99
2018-09-06T05:52:05.617Z,99.99
2018-09-06T05:53:05.560Z,99.99
2018-09-06T05:54:05.518Z,99.99
2018-09-06T05:55:05.489Z,99.99
2018-09-06T05:56:05.417Z,99.99
2018-09-06T05:57:05.368Z,99.99
2018-09-06T05:58:05.378Z,99.99
2018-09-06T05:59:05.272Z,99.99
2018-09-06T06:00:05.294Z,99.99
2018-09-06T06:01:05.182Z,99.99
2018-09-06T06:02:05.136Z,99.99
2018-09-06T06:03:05.083Z,99.99
2018-09-06T06:04:05.033Z,99.99
2018-09-06T06:05:05.006Z,99.99
2018-09-06T06:06:04.947Z,99.99
2018-09-06T06:07:04.891Z,99.99
2018-09-06T06:08:04.849Z,99.99
2018-09-06T06:09:04.794Z,99.99
2018-09-06T06:10:04.781Z,99.99
2018-09-06T06:11:04.700Z,99.99
2018-09-06T06:12:04.646Z,99.99
2018-09-06T06:13:04.607Z,99.99
2018-09-06T06:14:04.554Z,99.99
2018-09-06T06:15:04.531Z,99.99
2018-09-06T06:16:04.467Z,99.99
2018-09-06T06:17:04.412Z,99.99
2018-09-06T06:18:04.364Z,99.99
2018-09-06T06:19:04.315Z,99.99
2018-09-06T06:20:04.357Z,99.99
2018-09-06T06:21:04.224Z,99.99
2018-09-06T06:22:04.183Z,99.99
2018-09-06T06:23:04.130Z,99.99
2018-09-06T06:24:04.078Z,99.99
2018-09-06T06:25:04.051Z,99.99
2018-09-06T06:26:04.040Z,99.99
2018-09-06T06:27:03.935Z,99.99
2018-09-06T06:28:03.891Z,99.99
2018-09-06T06:29:03.848Z,99.99
2018-09-06T06:30:03.819Z,99.99
2018-09-06T06:31:03.746Z,99.99
2018-09-06T06:32:03.707Z,99.99
2018-09-06T06:33:03.649Z,99.99
2018-09-06T06:34:03.617Z,99.99
2018-09-06T06:35:03.582Z,99.99
2018-09-06T06:36:03.513Z,99.99
2018-09-06T06:37:03.464Z,99.99
2018-09-06T06:38:03.418Z,99.99
2018-09-06T06:39:03.371Z,99.30
2018-09-06T06:40:03.342Z,97.47
2018-09-06T06:41:03.274Z,97.19
2018-09-06T06:42:03.225Z,99.20
2018-09-06T06:43:03.178Z,96.99
2018-09-06T06:44:03.134Z,96.61
2018-09-06T06:45:03.113Z,97.28
2018-09-06T06:46:03.059Z,97.38
2018-09-06T06:47:02.991Z,98.39
2018-09-06T06:48:02.941Z,98.48
2018-09-06T06:49:02.899Z,98.68
2018-09-06T06:50:02.848Z,98.10
2018-09-06T06:51:02.830Z,98.68
2018-09-06T06:52:02.757Z,99.73
2018-09-06T06:53:02.705Z,99.15
2018-09-06T06:54:02.668Z,98.19
2018-09-06T06:55:02.615Z,99.44
2018-09-06T06:56:02.597Z,97.04
2018-09-06T06:57:02.528Z,96.85
2018-09-06T06:58:02.479Z,96.75
2018-09-06T06:59:02.427Z,96.42
2018-09-06T07:00:02.379Z,97.19
2018-09-06T07:01:02.397Z,97.24
2018-09-06T07:02:02.292Z,99.06
2018-09-06T07:03:02.241Z,99.83
2018-09-06T07:04:02.203Z,99.44
2018-09-06T07:05:02.146Z,96.85
2018-09-06T07:06:02.121Z,97.04
2018-09-06T07:07:02.109Z,96.70
2018-09-06T07:08:02.004Z,97.67
2018-09-06T07:09:01.955Z,98.24
2018-09-06T07:10:01.914Z,97.76
2018-09-06T07:11:01.886Z,98.53
2018-09-06T07:12:01.822Z,97.76
2018-09-06T07:13:01.775Z,96.66
2018-09-06T07:14:01.724Z,94.45
2018-09-06T07:15:01.680Z,94.01
2018-09-06T07:16:01.659Z,94.59
2018-09-06T07:17:01.586Z,94.30
2018-09-06T07:18:01.540Z,95.26
2018-09-06T07:19:01.489Z,94.49
2018-09-06T07:20:01.452Z,95.75
2018-09-06T07:21:01.422Z,96.61
2018-09-06T07:22:01.349Z,96.80
2018-09-06T07:23:01.306Z,97.28
2018-09-06T07:24:01.258Z,95.60
2018-09-06T07:25:01.212Z,95.98
2018-09-06T07:26:01.188Z,96.66
2018-09-06T07:27:01.119Z,97.04
2018-09-06T07:28:01.070Z,98.86
2018-09-06T07:29:01.022Z,98.68
2018-09-06T07:30:00.974Z,98.72
2018-09-06T07:31:00.952Z,99.59
2018-09-06T07:32:00.882Z,98.82
2018-09-06T07:33:00.835Z,98.05
2018-09-06T07:34:00.791Z,97.47
2018-09-06T07:35:00.751Z,96.80
2018-09-06T07:36:00.720Z,96.80
2018-09-06T07:37:00.648Z,96.51
2018-09-06T07:38:00.602Z,97.19
2018-09-06T07:39:00.558Z,97.57
2018-09-06T07:40:00.511Z,97.57
2018-09-06T07:41:00.486Z,95.65
2018-09-06T07:42:00.417Z,96.42
2018-09-06T07:43:00.371Z,95.65
2018-09-06T07:44:00.326Z,96.27
2018-09-06T07:45:00.276Z,96.37
2018-09-06T07:46:00.254Z,96.17
2018-09-06T07:47:00.184Z,95.98
2018-09-06T07:48:00.142Z,95.40
2018-09-06T07:49:00.090Z,95.31
2018-09-06T07:50:00.100Z,96.85
2018-09-06T07:51:00.021Z,97.04
2018-09-06T07:51:59.952Z,97.42
2018-09-06T07:52:59.908Z,94.83
2018-09-06T07:53:59.860Z,95.79
2018-09-06T07:54:59.814Z,95.40
2018-09-06T07:55:59.806Z,95.79
2018-09-06T07:56:59.717Z,96.75
2018-09-06T07:57:59.675Z,96.37
2018-09-06T07:58:59.627Z,96.66
2018-09-06T07:59:59.581Z,97.14
2018-09-06T08:00:59.536Z,97.04
2018-09-06T08:01:59.509Z,98.44
2018-09-06T08:02:59.441Z,98.34
2018-09-06T08:03:59.394Z,97.09
2018-09-06T08:04:59.351Z,95.36
2018-09-06T08:05:59.302Z,96.03
2018-09-06T08:06:59.279Z,95.17
2018-09-06T08:07:59.209Z,95.69
2018-09-06T08:08:59.164Z,94.92
2018-09-06T08:09:59.121Z,91.27
2018-09-06T08:10:59.076Z,93.29
2018-09-06T08:11:59.073Z,91.07
2018-09-06T08:12:58.978Z,90.40
2018-09-06T08:13:58.934Z,93.29
2018-09-06T08:14:58.886Z,94.01
2018-09-06T08:15:58.837Z,90.83
2018-09-06T08:16:58.822Z,90.59
2018-09-06T08:17:58.747Z,91.84
2018-09-06T08:18:58.769Z,91.79
2018-09-06T08:19:58.658Z,92.18
2018-09-06T08:20:58.608Z,90.92
2018-09-06T08:21:58.589Z,91.50
2018-09-06T08:22:58.519Z,94.87
2018-09-06T08:23:58.473Z,92.90
2018-09-06T08:24:58.432Z,91.69
2018-09-06T08:25:58.383Z,91.12
2018-09-06T08:26:58.364Z,92.80
2018-09-06T08:27:58.297Z,93.67
2018-09-06T08:28:58.270Z,91.46
2018-09-06T08:29:58.210Z,91.79
2018-09-06T08:30:58.350Z,91.84
2018-09-06T08:31:58.220Z,91.75
2018-09-06T08:32:58.073Z,92.13
2018-09-06T08:33:58.029Z,93.96
2018-09-06T08:34:57.989Z,93.04
2018-09-06T08:35:57.980Z,92.27
2018-09-06T08:36:58.013Z,92.76
2018-09-06T08:37:57.844Z,94.97
2018-09-06T08:38:57.797Z,92.08
2018-09-06T08:39:57.752Z,94.01
2018-09-06T08:40:57.707Z,93.43
2018-09-06T08:41:57.702Z,94.29
2018-09-06T08:42:57.611Z,94.97
2018-09-06T08:43:57.565Z,93.96
2018-09-06T08:44:57.521Z,92.32
2018-09-06T08:45:57.473Z,93.38
2018-09-06T08:46:57.460Z,96.17
2018-09-06T08:47:57.387Z,94.82
2018-09-06T08:48:57.345Z,94.92
2018-09-06T08:49:57.291Z,93.38
2018-09-06T08:50:57.244Z,92.90
2018-09-06T08:51:57.228Z,91.07
2018-09-06T08:52:57.153Z,90.78
2018-09-06T08:53:57.112Z,92.22
2018-09-06T08:54:57.058Z,93.48
2018-09-06T08:55:57.015Z,93.38
2018-09-06T08:56:56.993Z,94.44
2018-09-06T08:57:56.920Z,92.80
2018-09-06T08:58:56.878Z,92.42
2018-09-06T08:59:56.862Z,92.61
2018-09-06T09:00:56.787Z,93.38
2018-09-06T09:01:56.791Z,92.94
2018-09-06T09:02:56.830Z,92.56
2018-09-06T09:03:56.650Z,91.89
2018-09-06T09:04:56.602Z,90.73
2018-09-06T09:05:56.596Z,89.86
2018-09-06T09:06:56.512Z,90.25
2018-09-06T09:07:56.490Z,90.64
2018-09-06T09:08:56.422Z,88.51
2018-09-06T09:09:56.378Z,88.51
2018-09-06T09:10:56.330Z,89.29
2018-09-06T09:11:56.281Z,90.06
2018-09-06T09:12:56.319Z,90.34
2018-09-06T09:13:56.197Z,89.77
2018-09-06T09:14:56.150Z,89.19
2018-09-06T09:15:56.140Z,89.58
2018-09-06T09:16:56.057Z,88.61
2018-09-06T09:17:56.043Z,90.83
2018-09-06T09:18:55.967Z,93.14
2018-09-06T09:19:55.923Z,93.91
2018-09-06T09:20:55.878Z,92.80
2018-09-06T09:21:55.898Z,90.73
2018-09-06T09:22:55.806Z,92.66
2018-09-06T09:23:55.739Z,89.86
2018-09-06T09:24:55.695Z,89.00
2018-09-06T09:25:55.651Z,88.71
2018-09-06T09:26:55.607Z,91.02
2018-09-06T09:27:55.588Z,90.44
2018-09-06T09:28:55.515Z,89.00
2018-09-06T09:29:55.467Z,90.44
2018-09-06T09:30:55.423Z,90.16
2018-09-06T09:31:55.379Z,90.48
2018-09-06T09:32:55.365Z,91.16
2018-09-06T09:33:55.290Z,90.78
2018-09-06T09:34:55.239Z,89.23
2018-09-06T09:35:55.227Z,90.10
2018-09-06T09:36:55.151Z,88.17
2018-09-06T09:37:55.131Z,88.56
2018-09-06T09:38:55.063Z,89.67
2018-09-06T09:39:55.013Z,89.72
2018-09-06T09:40:54.969Z,89.62
2018-09-06T09:41:54.927Z,89.14
2018-09-06T09:42:54.912Z,89.09
2018-09-06T09:43:54.835Z,88.70
2018-09-06T09:44:54.794Z,86.87
2018-09-06T09:47:47.284Z,88.31
2018-09-06T09:48:26.203Z,89.95
2018-09-06T09:49:26.209Z,89.09
2018-09-06T09:51:57.619Z,88.02
2018-09-06T09:52:57.589Z,88.70
2018-09-06T09:53:57.524Z,88.99
2018-09-06T09:54:57.476Z,88.36
2018-09-06T09:55:57.435Z,85.91
2018-09-06T09:56:57.449Z,86.43
2018-09-06T09:57:57.386Z,87.06
2018-09-06T09:58:57.295Z,85.81
2018-09-06T09:59:57.255Z,86.77
2018-09-06T10:00:57.208Z,86.68
2018-09-06T10:01:57.161Z,88.22
2018-09-06T10:02:57.114Z,85.91
2018-09-06T10:03:57.121Z,86.04
2018-09-06T10:04:57.026Z,87.88
2018-09-06T10:05:56.981Z,86.91
2018-09-06T10:06:56.937Z,87.10
2018-09-06T10:07:56.897Z,86.82
2018-09-06T10:08:56.873Z,87.20
2018-09-06T10:09:56.804Z,87.49
2018-09-06T10:10:56.761Z,88.75
2018-09-06T10:11:56.712Z,87.88
2018-09-06T10:12:56.672Z,85.85
2018-09-06T10:13:56.648Z,84.41
2018-09-06T10:14:56.579Z,85.70
2018-09-06T10:15:56.532Z,85.37
2018-09-06T10:16:56.491Z,84.41
2018-09-06T10:17:56.445Z,85.56
2018-09-06T10:18:56.426Z,86.82
2018-09-06T10:19:56.356Z,85.94
2018-09-06T10:20:56.314Z,85.41
2018-09-06T10:21:56.263Z,85.70
2018-09-06T10:22:56.221Z,83.96
2018-09-06T10:23:56.197Z,84.06
2018-09-06T10:24:56.132Z,85.41
2018-09-06T10:25:56.088Z,86.96
2018-09-06T10:26:56.044Z,86.76
2018-09-06T10:27:56.001Z,85.50
2018-09-06T10:28:55.980Z,84.97
2018-09-06T10:29:55.909Z,86.03
2018-09-06T10:30:55.868Z,85.16
2018-09-06T10:31:55.820Z,81.98
2018-09-06T10:32:55.779Z,83.33
2018-09-06T10:33:55.754Z,82.26
2018-09-06T10:34:55.692Z,82.17
2018-09-06T10:35:55.647Z,80.97
2018-09-06T10:36:55.605Z,82.03
2018-09-06T10:37:55.553Z,81.65
2018-09-06T10:38:55.533Z,81.59
2018-09-06T10:39:55.516Z,82.84
2018-09-06T10:40:55.422Z,82.75
2018-09-06T10:41:55.376Z,82.07
2018-09-06T10:42:55.333Z,82.17
2018-09-06T10:43:55.315Z,82.94
2018-09-06T10:44:55.245Z,84.10
2018-09-06T10:45:55.200Z,84.20
2018-09-06T10:46:55.159Z,83.62
2018-09-06T10:47:55.155Z,81.93
2018-09-06T10:48:55.093Z,81.16
2018-09-06T10:49:55.021Z,81.74
2018-09-06T10:50:54.983Z,84.44
2018-09-06T10:51:54.939Z,86.38
2018-09-06T10:52:54.899Z,87.40
2018-09-06T10:53:54.845Z,86.91
2018-09-06T10:54:54.836Z,87.40
2018-09-06T10:55:54.756Z,87.78
2018-09-06T10:56:54.713Z,88.55
2018-09-06T10:57:54.667Z,86.62
2018-09-06T10:58:54.627Z,87.10
2018-09-06T10:59:54.602Z,87.20
2018-09-06T11:00:54.533Z,88.26
2018-09-06T11:01:54.492Z,89.32
2018-09-06T11:02:54.448Z,88.02
2018-09-06T11:03:54.404Z,86.68
2018-09-06T11:04:54.377Z,86.77
2018-09-06T11:05:54.311Z,88.31
2018-09-06T11:06:54.267Z,87.54
2018-09-06T11:07:54.269Z,87.26
2018-09-06T11:08:54.176Z,90.34
2018-09-06T11:09:54.159Z,90.72
2018-09-06T11:10:54.091Z,88.60
2018-09-06T11:11:54.042Z,89.33
2018-09-06T11:12:53.996Z,89.62
2018-09-06T11:13:53.959Z,90.34
2018-09-06T11:14:53.960Z,89.91
2018-09-06T11:15:53.860Z,90.88
2018-09-06T11:16:53.814Z,88.12
2018-09-06T11:17:53.836Z,87.50
2018-09-06T11:18:53.732Z,88.46
2018-09-06T11:19:53.700Z,88.46
2018-09-06T11:20:53.636Z,87.54
2018-09-06T11:21:53.750Z,89.33
2018-09-06T11:22:53.545Z,90.30
2018-09-06T11:23:53.503Z,90.78
2018-09-06T11:24:53.481Z,89.23
2018-09-06T11:25:53.409Z,89.67
2018-09-06T11:26:53.365Z,89.91
2018-09-06T11:27:53.395Z,90.00
2018-09-06T11:28:53.276Z,90.92
2018-09-06T11:29:53.252Z,92.13
2018-09-06T11:30:53.186Z,91.74
2018-09-06T11:31:53.144Z,90.39
2018-09-06T11:32:53.096Z,90.88
2018-09-06T11:33:53.051Z,91.06
2018-09-06T11:34:53.027Z,89.62
2018-09-06T11:35:52.968Z,89.81
2018-09-06T11:36:52.910Z,90.48
2018-09-06T11:37:52.867Z,89.23
2018-09-06T11:38:52.821Z,90.48
2018-09-06T11:39:52.831Z,92.65
2018-09-06T11:40:52.730Z,90.97
2018-09-06T11:41:52.685Z,89.43
2018-09-06T11:42:52.636Z,90.53
2018-09-06T11:43:52.598Z,88.60
2018-09-06T11:44:52.579Z,88.12
2018-09-06T11:45:52.542Z,87.45
2018-09-06T11:46:52.534Z,87.64
2018-09-06T11:47:52.417Z,87.54
2018-09-06T11:48:52.369Z,85.71
2018-09-06T11:49:52.351Z,86.00
2018-09-06T11:50:52.281Z,88.07
2018-09-06T11:51:52.239Z,87.88
2018-09-06T11:52:52.186Z,87.30
2018-09-06T11:53:52.142Z,87.88
2018-09-06T11:54:52.121Z,87.68
2018-09-06T11:55:52.058Z,86.91
2018-09-06T11:56:52.009Z,86.04
2018-09-06T11:57:51.962Z,86.04
2018-09-06T11:58:51.918Z,86.24
2018-09-06T11:59:51.913Z,85.27
2018-09-06T12:00:51.830Z,87.10
2018-09-06T12:01:51.788Z,86.38
2018-09-06T12:02:51.739Z,84.83
2018-09-06T12:03:51.694Z,82.81
2018-09-06T12:04:51.649Z,83.29
2018-09-06T12:05:51.629Z,84.44
2018-09-06T12:06:51.558Z,85.60
2018-09-06T12:07:51.519Z,85.02
2018-09-06T12:08:51.481Z,81.55
2018-09-06T12:09:51.425Z,81.84
2018-09-06T12:10:51.401Z,81.93
2018-09-06T12:11:51.343Z,86.08
2018-09-06T12:12:51.289Z,83.62
2018-09-06T12:13:51.317Z,84.48
2018-09-06T12:14:51.202Z,84.68
2018-09-06T12:15:51.184Z,80.72
2018-09-06T12:16:51.113Z,83.04
2018-09-06T12:17:51.071Z,82.26
2018-09-06T12:18:51.027Z,81.98
2018-09-06T12:19:50.981Z,82.07
2018-09-06T12:20:50.962Z,82.36
2018-09-06T12:21:50.895Z,81.30
2018-09-06T12:22:50.849Z,82.13
2018-09-06T12:23:50.803Z,82.94
2018-09-06T12:24:50.759Z,81.98
2018-09-06T12:25:50.814Z,83.62
2018-09-06T12:26:50.678Z,84.25
2018-09-06T12:27:50.626Z,83.77
2018-09-06T12:28:50.585Z,85.31
2018-09-06T12:29:50.539Z,84.06
2018-09-06T12:30:50.524Z,83.77
2018-09-06T12:31:50.451Z,83.58
2018-09-06T12:32:50.408Z,85.12
2018-09-06T12:33:50.365Z,83.29
2018-09-06T12:34:50.319Z,85.02
2018-09-06T12:35:50.294Z,84.44
2018-09-06T12:36:50.231Z,83.77
2018-09-06T12:37:50.185Z,85.12
2018-09-06T12:38:50.139Z,85.12
2018-09-06T12:39:50.100Z,85.60
2018-09-06T12:40:50.071Z,85.70
2018-09-06T12:41:50.005Z,84.44
2018-09-06T12:42:49.959Z,85.12
2018-09-06T12:43:49.919Z,86.86
2018-09-06T12:44:49.871Z,86.47
2018-09-06T12:45:49.849Z,84.83
2018-09-06T12:46:49.784Z,86.08
2018-09-06T12:47:49.740Z,87.59
2018-09-06T12:48:49.703Z,87.10
2018-09-06T12:49:49.651Z,88.93
2018-09-06T12:50:49.632Z,89.13
2018-09-06T12:51:49.558Z,91.35
2018-09-06T12:52:49.524Z,91.54
2018-09-06T12:53:49.469Z,94.34
2018-09-06T12:54:49.427Z,92.89